createdAt,value
2022-12-12T00:01:58.756Z,-1.25
2022-12-12T00:07:01.682Z,-1.21
2022-12-12T00:12:04.773Z,-1.19
2022-12-12T00:17:07.740Z,-1.16
2022-12-12T00:22:10.796Z,-1.19
2022-12-12T00:27:13.659Z,-1.16
2022-12-12T00:32:16.560Z,-1.13
2022-12-12T00:37:19.586Z,-1.09
2022-12-12T00:42:22.490Z,-1.06
2022-12-12T00:47:25.445Z,-1.04
2022-12-12T00:52:28.385Z,-0.98
2022-12-12T00:57:31.357Z,-0.97
2022-12-12T01:02:34.875Z,-0.92
2022-12-12T01:07:38.038Z,-0.87
2022-12-12T01:12:41.066Z,-0.83
2022-12-12T01:17:43.933Z,-0.80
2022-12-12T01:22:47.701Z,-0.74
2022-12-12T01:27:51.113Z,-0.68
2022-12-12T01:32:55.260Z,-0.63
2022-12-12T01:37:58.329Z,-0.60
2022-12-12T01:43:02.319Z,-0.57
2022-12-12T01:48:05.697Z,-0.53
2022-12-12T01:53:10.532Z,-0.49
2022-12-12T01:58:14.297Z,-0.43
2022-12-12T02:03:17.334Z,-0.38
2022-12-12T02:08:23.229Z,-0.34
2022-12-12T02:13:30.841Z,-0.31
2022-12-12T02:18:46.823Z,-0.27
2022-12-12T02:24:01.868Z,-0.27
2022-12-12T02:29:32.136Z,-0.25
2022-12-12T02:34:53.309Z,-0.25
2022-12-12T02:40:25.346Z,-0.21
2022-12-12T02:45:57.403Z,-0.19
2022-12-12T02:51:06.135Z,-0.16
2022-12-12T02:56:44.060Z,-0.15
2022-12-12T03:02:29.934Z,-0.14
2022-12-12T03:08:06.784Z,-0.12
2022-12-12T03:13:31.485Z,-0.09
2022-12-12T03:18:43.655Z,-0.09
2022-12-12T03:23:54.923Z,-0.06
2022-12-12T03:29:08.708Z,-0.05
2022-12-12T03:34:25.492Z,-0.03
2022-12-12T03:40:09.062Z,-0.00
2022-12-12T03:45:21.165Z,0.02
2022-12-12T03:50:34.428Z,0.05
2022-12-12T03:55:49.413Z,0.10
2022-12-12T04:00:57.392Z,0.14
2022-12-12T04:06:27.295Z,0.16
2022-12-12T04:11:59.339Z,0.19
2022-12-12T04:17:06.133Z,0.22
2022-12-12T04:22:39.614Z,0.27
2022-12-12T04:27:50.953Z,0.29
2022-12-12T04:33:00.198Z,0.32
2022-12-12T04:38:13.454Z,0.34
2022-12-12T04:43:33.373Z,0.36
2022-12-12T04:48:43.985Z,0.38
2022-12-12T04:54:07.061Z,0.38
2022-12-12T04:59:09.974Z,0.40
2022-12-12T05:04:27.736Z,0.39
2022-12-12T05:09:31.077Z,0.37
2022-12-12T05:14:34.178Z,0.39
2022-12-12T05:19:37.052Z,0.43
2022-12-12T05:24:40.091Z,0.46
2022-12-12T05:29:42.940Z,0.49
2022-12-12T05:34:46.161Z,0.49
2022-12-12T05:39:49.057Z,0.51
2022-12-12T05:44:52.384Z,0.51
2022-12-12T05:49:55.266Z,0.51
2022-12-12T05:54:58.251Z,0.55
2022-12-12T06:00:01.196Z,0.54
2022-12-12T06:05:04.484Z,0.55
2022-12-12T06:10:08.849Z,0.58
2022-12-12T06:15:12.104Z,0.58
2022-12-12T06:20:15.387Z,0.62
2022-12-12T06:25:18.381Z,0.63
2022-12-12T06:30:21.330Z,0.65
2022-12-12T06:35:24.241Z,0.67
2022-12-12T06:40:27.167Z,0.68
2022-12-12T06:45:30.115Z,0.68
2022-12-12T06:50:33.012Z,0.72
2022-12-12T06:55:43.024Z,0.72
2022-12-12T07:00:52.176Z,0.69
2022-12-12T07:05:55.087Z,0.65
2022-12-12T07:11:08.990Z,0.65
2022-12-12T07:16:12.046Z,0.67
2022-12-12T07:21:19.443Z,0.73
2022-12-12T07:26:23.865Z,0.78
2022-12-12T07:31:27.001Z,0.76
2022-12-12T07:36:29.957Z,0.81
2022-12-12T07:41:32.967Z,0.82
2022-12-12T07:46:35.916Z,0.81
2022-12-12T07:51:40.959Z,0.84
2022-12-12T07:56:47.712Z,0.86
2022-12-12T08:01:50.622Z,0.85
2022-12-12T08:07:00.621Z,0.85
2022-12-12T08:12:05.526Z,0.92
2022-12-12T08:17:08.600Z,0.97
2022-12-12T08:22:11.457Z,1.11
2022-12-12T08:27:15.941Z,1.24
2022-12-12T08:32:19.701Z,1.31
2022-12-12T08:37:22.740Z,1.43
2022-12-12T08:42:25.680Z,1.55
2022-12-12T08:47:29.639Z,1.63
2022-12-12T08:52:32.924Z,1.57
2022-12-12T08:57:35.777Z,1.48
2022-12-12T09:02:38.767Z,1.40
2022-12-12T09:07:41.751Z,1.41
2022-12-12T09:12:44.704Z,1.36
2022-12-12T09:17:47.552Z,1.42
2022-12-12T09:22:50.445Z,1.53
2022-12-12T09:27:53.391Z,1.63
2022-12-12T09:32:56.296Z,1.62
2022-12-12T09:37:59.435Z,1.58
2022-12-12T09:43:03.604Z,1.57
2022-12-12T09:48:08.114Z,1.57
2022-12-12T09:53:16.363Z,1.56
2022-12-12T09:59:19.005Z,1.50
2022-12-12T10:04:30.059Z,1.50
2022-12-12T10:09:44.945Z,1.48
2022-12-12T10:15:12.410Z,1.38
2022-12-12T10:20:33.359Z,1.29
2022-12-12T10:25:58.137Z,1.29
2022-12-12T10:31:12.829Z,1.25
2022-12-12T10:36:34.131Z,1.27
2022-12-12T10:42:01.859Z,1.28
2022-12-12T10:47:10.010Z,1.29
2022-12-12T10:52:22.801Z,1.38
2022-12-12T10:57:33.806Z,1.44
2022-12-12T11:02:42.230Z,1.40
2022-12-12T11:07:57.895Z,1.52
2022-12-12T11:13:16.727Z,1.57
2022-12-12T11:18:23.809Z,1.64
2022-12-12T11:23:28.898Z,1.76
2022-12-12T11:28:36.920Z,1.81
2022-12-12T11:34:00.891Z,1.78
2022-12-12T11:39:21.534Z,1.79
2022-12-12T11:44:28.520Z,1.70
2022-12-12T11:49:31.535Z,1.63
2022-12-12T11:54:34.822Z,1.57
2022-12-12T12:00:06.133Z,1.54
2022-12-12T12:05:43.157Z,1.55
2022-12-12T12:11:19.875Z,1.54
2022-12-12T12:16:50.852Z,1.58
2022-12-12T12:22:02.857Z,1.58
2022-12-12T12:27:14.126Z,1.54
2022-12-12T12:32:46.756Z,1.50
2022-12-12T12:38:31.626Z,1.42
2022-12-12T12:44:17.140Z,1.30
2022-12-12T12:49:34.888Z,1.26
2022-12-12T12:54:46.877Z,1.25
2022-12-12T13:00:00.154Z,1.18
2022-12-12T13:05:11.388Z,1.13
2022-12-12T13:10:30.365Z,1.05
2022-12-12T13:15:41.968Z,1.03
2022-12-12T13:20:55.780Z,1.01
2022-12-12T13:26:18.167Z,1.00
2022-12-12T13:32:00.240Z,0.92
2022-12-12T13:37:06.132Z,0.84
2022-12-12T13:42:14.484Z,0.78
2022-12-12T13:47:23.347Z,0.81
2022-12-12T13:52:29.059Z,0.80
2022-12-12T13:57:32.280Z,0.80
2022-12-12T14:02:41.770Z,0.82
2022-12-12T14:08:11.753Z,0.79
2022-12-12T14:13:23.881Z,0.73
2022-12-12T14:18:49.182Z,0.71
2022-12-12T14:23:53.771Z,0.69
2022-12-12T14:29:15.537Z,0.72
2022-12-12T14:34:58.580Z,0.71
2022-12-12T14:40:21.958Z,0.70
2022-12-12T14:45:40.107Z,0.66
2022-12-12T14:51:11.386Z,0.62
2022-12-12T14:56:19.804Z,0.62
2022-12-12T15:01:43.781Z,0.61
2022-12-12T15:06:52.714Z,0.60
2022-12-12T15:12:16.436Z,0.59
2022-12-12T15:17:28.160Z,0.60
2022-12-12T15:22:37.942Z,0.58
2022-12-12T15:27:48.058Z,0.58
2022-12-12T15:32:55.814Z,0.56
2022-12-12T15:38:05.794Z,0.53
2022-12-12T15:43:30.388Z,0.52
2022-12-12T15:48:33.292Z,0.52
2022-12-12T15:53:40.911Z,0.49
2022-12-12T15:58:48.513Z,0.51
2022-12-12T16:04:27.917Z,0.49
2022-12-12T16:09:30.873Z,0.49
2022-12-12T16:14:42.036Z,0.51
2022-12-12T16:20:02.607Z,0.47
2022-12-12T16:25:32.587Z,0.47
2022-12-12T16:30:45.041Z,0.47
2022-12-12T16:35:48.038Z,0.42
2022-12-12T16:40:55.459Z,0.42
2022-12-12T16:45:59.110Z,0.41
2022-12-12T16:51:06.295Z,0.42
2022-12-12T16:56:12.055Z,0.40
2022-12-12T17:01:17.252Z,0.37
2022-12-12T17:06:20.215Z,0.37
2022-12-12T17:11:23.091Z,0.36
2022-12-12T17:16:28.146Z,0.31
2022-12-12T17:21:31.317Z,0.27
2022-12-12T17:26:37.152Z,0.26
2022-12-12T17:31:40.815Z,0.26
2022-12-12T17:36:43.771Z,0.28
2022-12-12T17:41:46.766Z,0.32
2022-12-12T17:46:49.776Z,0.34
2022-12-12T17:51:52.905Z,0.37
2022-12-12T17:56:55.853Z,0.37
2022-12-12T18:01:58.847Z,0.34
2022-12-12T18:07:01.806Z,0.27
2022-12-12T18:12:06.047Z,0.23
2022-12-12T18:17:09.140Z,0.17
2022-12-12T18:22:12.161Z,0.15
2022-12-12T18:27:15.134Z,0.11
2022-12-12T18:32:18.097Z,0.06
2022-12-12T18:37:20.933Z,0.06
2022-12-12T18:42:23.912Z,0.09
2022-12-12T18:47:27.016Z,0.08
2022-12-12T18:52:33.109Z,0.07
2022-12-12T18:57:36.118Z,0.08
2022-12-12T19:02:40.622Z,0.08
2022-12-12T19:07:44.436Z,0.08
2022-12-12T19:12:47.702Z,0.08
2022-12-12T19:17:50.639Z,0.09
2022-12-12T19:22:53.592Z,0.09
2022-12-12T19:27:56.670Z,0.05
2022-12-12T19:33:01.454Z,-0.05
2022-12-12T19:38:04.659Z,-0.13
2022-12-12T19:43:07.667Z,-0.19
2022-12-12T19:48:11.582Z,-0.21
2022-12-12T19:53:15.635Z,-0.22
2022-12-12T19:58:18.765Z,-0.27
2022-12-12T20:03:22.085Z,-0.32
2022-12-12T20:08:25.193Z,-0.37
2022-12-12T20:13:31.300Z,-0.44
2022-12-12T20:18:34.928Z,-0.45
2022-12-12T20:23:45.476Z,-0.45
2022-12-12T20:28:51.849Z,-0.41
2022-12-12T20:33:57.602Z,-0.40
2022-12-12T20:39:05.459Z,-0.43
2022-12-12T20:44:09.479Z,-0.50
2022-12-12T20:49:18.771Z,-0.57
2022-12-12T20:54:23.770Z,-0.69
2022-12-12T20:59:27.129Z,-0.77
2022-12-12T21:04:31.930Z,-0.80
2022-12-12T21:09:34.996Z,-0.86
2022-12-12T21:14:38.450Z,-0.92
2022-12-12T21:19:42.392Z,-0.95
2022-12-12T21:24:45.441Z,-1.00
2022-12-12T21:29:48.526Z,-1.04
2022-12-12T21:34:51.535Z,-1.12
2022-12-12T21:39:54.799Z,-1.22
2022-12-12T21:44:57.751Z,-1.27
2022-12-12T21:50:00.766Z,-1.30
2022-12-12T21:55:04.325Z,-1.37
2022-12-12T22:00:08.765Z,-1.42
2022-12-12T22:05:12.111Z,-1.45
2022-12-12T22:10:15.542Z,-1.51
2022-12-12T22:15:18.550Z,-1.53
2022-12-12T22:20:21.651Z,-1.56
2022-12-12T22:25:24.758Z,-1.58
2022-12-12T22:30:27.902Z,-1.63
2022-12-12T22:35:30.994Z,-1.66
2022-12-12T22:40:33.890Z,-1.67
2022-12-12T22:45:36.886Z,-1.72
2022-12-12T22:50:39.862Z,-1.77
2022-12-12T22:55:42.830Z,-1.83
2022-12-12T23:00:45.842Z,-1.83
2022-12-12T23:05:48.818Z,-1.85
2022-12-12T23:10:51.732Z,-1.91
2022-12-12T23:15:54.749Z,-1.98
2022-12-12T23:20:57.950Z,-1.99
2022-12-12T23:26:08.734Z,-2.05
2022-12-12T23:31:23.499Z,-2.06
2022-12-12T23:36:28.032Z,-2.07
2022-12-12T23:41:31.029Z,-2.10
2022-12-12T23:46:36.462Z,-2.08
2022-12-12T23:51:53.250Z,-1.98
2022-12-12T23:56:56.221Z,-1.94
